Terminal Aerodrome Forecast
Issued by NWS Wakefield, VA

Home | Current Version | Previous Version | Text Only | Print | Product List | Glossary On
Versions: 1 2 3 4 5 6 7 8 9 10 11 12 13 14 15 16
000
FTUS41 KAKQ 231800 AAA
TAFECG
TAF AMD
KECG 231853Z 2319/2418 06008KT P6SM VCSH SCT020 OVC035
      TEMPO 2319/2322 3SM -SHRA BR OVC018
     FM232200 06007KT P6SM SCT020 BKN030
     FM240000 05007KT P6SM BKN020
     FM241400 06013G18KT P6SM SCT020 BKN030=

USA.gov is the U.S. government's official web portal to all federal, state and local government web resources and services.